sensor_id;sensor_type;location;lat;lon;timestamp;P1;durP1;ratioP1;P2;durP2;ratioP2
35312;SDS011;21425;50.454;30.466;2022-09-27T00:02:16;16.23;;;10.77;;
35312;SDS011;21425;50.454;30.466;2022-09-27T00:04:42;13.95;;;10.30;;
35312;SDS011;21425;50.454;30.466;2022-09-27T00:07:08;18.10;;;11.65;;
35312;SDS011;21425;50.454;30.466;2022-09-27T00:09:35;18.00;;;12.07;;
35312;SDS011;21425;50.454;30.466;2022-09-27T00:12:00;15.30;;;10.45;;
35312;SDS011;21425;50.454;30.466;2022-09-27T00:14:26;20.35;;;12.98;;
35312;SDS011;21425;50.454;30.466;2022-09-27T00:16:52;18.55;;;12.23;;
35312;SDS011;21425;50.454;30.466;2022-09-27T00:19:19;19.60;;;12.18;;
35312;SDS011;21425;50.454;30.466;2022-09-27T00:21:47;22.48;;;13.30;;
35312;SDS011;21425;50.454;30.466;2022-09-27T00:24:17;16.98;;;12.35;;
35312;SDS011;21425;50.454;30.466;2022-09-27T00:26:45;22.27;;;13.38;;
35312;SDS011;21425;50.454;30.466;2022-09-27T00:29:12;18.65;;;11.65;;
35312;SDS011;21425;50.454;30.466;2022-09-27T00:31:39;19.80;;;12.85;;
35312;SDS011;21425;50.454;30.466;2022-09-27T00:34:05;25.35;;;13.38;;
35312;SDS011;21425;50.454;30.466;2022-09-27T00:36:32;20.52;;;11.95;;
35312;SDS011;21425;50.454;30.466;2022-09-27T00:38:59;22.13;;;13.18;;
35312;SDS011;21425;50.454;30.466;2022-09-27T00:41:30;20.75;;;12.57;;
35312;SDS011;21425;50.454;30.466;2022-09-27T00:43:58;19.02;;;12.27;;
35312;SDS011;21425;50.454;30.466;2022-09-27T00:49:09;19.15;;;13.13;;
35312;SDS011;21425;50.454;30.466;2022-09-27T00:51:40;17.88;;;12.43;;
35312;SDS011;21425;50.454;30.466;2022-09-27T00:54:11;21.98;;;12.68;;
35312;SDS011;21425;50.454;30.466;2022-09-27T00:56:38;19.55;;;13.27;;
35312;SDS011;21425;50.454;30.466;2022-09-27T00:59:08;21.95;;;13.07;;
35312;SDS011;21425;50.454;30.466;2022-09-27T01:01:41;20.17;;;13.23;;
35312;SDS011;21425;50.454;30.466;2022-09-27T01:04:11;20.55;;;13.85;;
35312;SDS011;21425;50.454;30.466;2022-09-27T01:06:39;25.25;;;14.00;;
35312;SDS011;21425;50.454;30.466;2022-09-27T01:09:05;22.65;;;13.50;;
35312;SDS011;21425;50.454;30.466;2022-09-27T01:11:38;26.40;;;13.70;;
35312;SDS011;21425;50.454;30.466;2022-09-27T01:28:50;23.83;;;14.45;;
35312;SDS011;21425;50.454;30.466;2022-09-27T01:31:49;24.85;;;16.13;;
35312;SDS011;21425;50.454;30.466;2022-09-27T01:34:38;28.00;;;16.85;;
35312;SDS011;21425;50.454;30.466;2022-09-27T01:37:24;25.77;;;16.35;;
35312;SDS011;21425;50.454;30.466;2022-09-27T01:42:59;30.90;;;15.52;;
35312;SDS011;21425;50.454;30.466;2022-09-27T01:45:46;26.58;;;16.52;;
35312;SDS011;21425;50.454;30.466;2022-09-27T01:48:21;29.13;;;17.27;;
35312;SDS011;21425;50.454;30.466;2022-09-27T01:50:56;28.33;;;16.73;;
35312;SDS011;21425;50.454;30.466;2022-09-27T01:53:29;30.50;;;17.70;;
35312;SDS011;21425;50.454;30.466;2022-09-27T01:56:01;28.88;;;17.00;;
35312;SDS011;21425;50.454;30.466;2022-09-27T01:58:33;30.17;;;16.35;;
35312;SDS011;21425;50.454;30.466;2022-09-27T02:01:21;29.42;;;16.83;;
35312;SDS011;21425;50.454;30.466;2022-09-27T02:03:50;34.40;;;20.08;;
35312;SDS011;21425;50.454;30.466;2022-09-27T02:06:21;31.20;;;18.30;;
35312;SDS011;21425;50.454;30.466;2022-09-27T02:08:59;35.65;;;18.88;;
35312;SDS011;21425;50.454;30.466;2022-09-27T02:11:31;37.25;;;20.90;;
35312;SDS011;21425;50.454;30.466;2022-09-27T02:14:17;32.47;;;18.73;;
35312;SDS011;21425;50.454;30.466;2022-09-27T02:19:28;34.17;;;20.33;;
35312;SDS011;21425;50.454;30.466;2022-09-27T02:22:16;37.85;;;20.90;;
35312;SDS011;21425;50.454;30.466;2022-09-27T02:25:01;39.80;;;20.17;;
35312;SDS011;21425;50.454;30.466;2022-09-27T02:30:30;33.53;;;19.92;;
35312;SDS011;21425;50.454;30.466;2022-09-27T02:32:56;37.55;;;20.80;;
35312;SDS011;21425;50.454;30.466;2022-09-27T02:35:25;35.88;;;19.88;;
35312;SDS011;21425;50.454;30.466;2022-09-27T02:37:54;37.45;;;20.15;;
35312;SDS011;21425;50.454;30.466;2022-09-27T02:40:20;33.42;;;20.65;;
35312;SDS011;21425;50.454;30.466;2022-09-27T02:42:46;39.63;;;20.75;;
35312;SDS011;21425;50.454;30.466;2022-09-27T02:45:12;38.63;;;19.98;;
35312;SDS011;21425;50.454;30.466;2022-09-27T02:48:03;34.17;;;20.15;;
35312;SDS011;21425;50.454;30.466;2022-09-27T02:58:57;36.42;;;20.17;;
35312;SDS011;21425;50.454;30.466;2022-09-27T03:01:34;38.95;;;20.40;;
35312;SDS011;21425;50.454;30.466;2022-09-27T03:06:40;47.17;;;20.45;;
35312;SDS011;21425;50.454;30.466;2022-09-27T03:09:19;43.80;;;20.92;;
35312;SDS011;21425;50.454;30.466;2022-09-27T03:11:46;36.80;;;20.48;;
35312;SDS011;21425;50.454;30.466;2022-09-27T03:14:11;39.38;;;21.42;;
35312;SDS011;21425;50.454;30.466;2022-09-27T03:16:37;50.35;;;20.90;;
35312;SDS011;21425;50.454;30.466;2022-09-27T03:19:03;35.17;;;20.48;;
35312;SDS011;21425;50.454;30.466;2022-09-27T03:21:29;39.22;;;20.40;;
35312;SDS011;21425;50.454;30.466;2022-09-27T03:23:55;43.45;;;21.15;;
35312;SDS011;21425;50.454;30.466;2022-09-27T03:26:20;31.05;;;19.05;;
35312;SDS011;21425;50.454;30.466;2022-09-27T03:28:46;102.78;;;23.35;;
35312;SDS011;21425;50.454;30.466;2022-09-27T03:31:11;54.25;;;21.67;;
35312;SDS011;21425;50.454;30.466;2022-09-27T03:33:38;61.92;;;22.55;;
35312;SDS011;21425;50.454;30.466;2022-09-27T03:36:04;38.17;;;21.33;;
35312;SDS011;21425;50.454;30.466;2022-09-27T03:38:30;49.50;;;20.83;;
35312;SDS011;21425;50.454;30.466;2022-09-27T03:40:56;57.75;;;23.33;;
35312;SDS011;21425;50.454;30.466;2022-09-27T03:43:21;48.40;;;23.17;;
35312;SDS011;21425;50.454;30.466;2022-09-27T03:45:47;48.00;;;22.40;;
35312;SDS011;21425;50.454;30.466;2022-09-27T03:48:12;40.38;;;22.05;;
35312;SDS011;21425;50.454;30.466;2022-09-27T03:50:38;40.65;;;22.30;;
35312;SDS011;21425;50.454;30.466;2022-09-27T03:53:04;47.35;;;22.88;;
35312;SDS011;21425;50.454;30.466;2022-09-27T03:55:29;45.72;;;22.80;;
35312;SDS011;21425;50.454;30.466;2022-09-27T03:57:55;50.25;;;23.70;;
35312;SDS011;21425;50.454;30.466;2022-09-27T04:00:21;57.88;;;26.55;;
35312;SDS011;21425;50.454;30.466;2022-09-27T04:02:48;62.70;;;27.75;;
35312;SDS011;21425;50.454;30.466;2022-09-27T04:05:14;83.75;;;28.45;;
35312;SDS011;21425;50.454;30.466;2022-09-27T04:07:44;75.40;;;28.42;;
35312;SDS011;21425;50.454;30.466;2022-09-27T04:10:13;61.03;;;27.92;;
35312;SDS011;21425;50.454;30.466;2022-09-27T04:12:39;56.17;;;26.48;;
35312;SDS011;21425;50.454;30.466;2022-09-27T04:15:05;60.30;;;28.50;;
35312;SDS011;21425;50.454;30.466;2022-09-27T04:17:32;58.45;;;28.38;;
35312;SDS011;21425;50.454;30.466;2022-09-27T04:19:58;65.03;;;27.65;;
35312;SDS011;21425;50.454;30.466;2022-09-27T04:22:24;70.03;;;28.30;;
35312;SDS011;21425;50.454;30.466;2022-09-27T04:24:49;86.90;;;29.65;;
35312;SDS011;21425;50.454;30.466;2022-09-27T04:27:15;68.82;;;28.65;;
35312;SDS011;21425;50.454;30.466;2022-09-27T04:29:41;70.13;;;28.65;;
35312;SDS011;21425;50.454;30.466;2022-09-27T04:32:09;134.65;;;30.05;;
35312;SDS011;21425;50.454;30.466;2022-09-27T04:34:35;155.57;;;36.65;;
35312;SDS011;21425;50.454;30.466;2022-09-27T04:37:19;145.80;;;34.08;;
35312;SDS011;21425;50.454;30.466;2022-09-27T04:39:45;178.40;;;38.08;;
35312;SDS011;21425;50.454;30.466;2022-09-27T04:42:10;80.75;;;29.90;;
35312;SDS011;21425;50.454;30.466;2022-09-27T04:44:36;158.52;;;34.55;;
35312;SDS011;21425;50.454;30.466;2022-09-27T04:47:01;61.72;;;30.60;;
35312;SDS011;21425;50.454;30.466;2022-09-27T04:49:27;67.65;;;30.20;;
35312;SDS011;21425;50.454;30.466;2022-09-27T04:51:52;68.53;;;30.73;;
35312;SDS011;21425;50.454;30.466;2022-09-27T04:54:18;108.88;;;30.58;;
35312;SDS011;21425;50.454;30.466;2022-09-27T04:56:44;65.18;;;29.35;;
35312;SDS011;21425;50.454;30.466;2022-09-27T04:59:10;117.70;;;30.33;;
35312;SDS011;21425;50.454;30.466;2022-09-27T05:01:35;67.65;;;27.73;;
35312;SDS011;21425;50.454;30.466;2022-09-27T05:04:01;61.80;;;28.08;;
35312;SDS011;21425;50.454;30.466;2022-09-27T05:06:26;63.08;;;29.40;;
35312;SDS011;21425;50.454;30.466;2022-09-27T05:08:52;54.78;;;28.10;;
35312;SDS011;21425;50.454;30.466;2022-09-27T05:11:17;59.40;;;27.20;;
35312;SDS011;21425;50.454;30.466;2022-09-27T05:13:43;192.00;;;35.17;;
35312;SDS011;21425;50.454;30.466;2022-09-27T05:16:08;113.07;;;30.00;;
35312;SDS011;21425;50.454;30.466;2022-09-27T05:18:35;125.57;;;37.92;;
35312;SDS011;21425;50.454;30.466;2022-09-27T05:21:00;72.32;;;27.75;;
35312;SDS011;21425;50.454;30.466;2022-09-27T05:23:26;63.92;;;27.52;;
35312;SDS011;21425;50.454;30.466;2022-09-27T05:25:52;196.13;;;34.85;;
35312;SDS011;21425;50.454;30.466;2022-09-27T05:28:20;232.77;;;37.80;;
35312;SDS011;21425;50.454;30.466;2022-09-27T05:30:46;184.48;;;35.47;;
35312;SDS011;21425;50.454;30.466;2022-09-27T05:33:11;285.92;;;40.85;;
35312;SDS011;21425;50.454;30.466;2022-09-27T05:35:37;179.85;;;33.15;;
35312;SDS011;21425;50.454;30.466;2022-09-27T05:38:11;115.22;;;29.75;;
35312;SDS011;21425;50.454;30.466;2022-09-27T05:40:37;232.43;;;38.58;;
35312;SDS011;21425;50.454;30.466;2022-09-27T05:43:03;77.05;;;28.80;;
35312;SDS011;21425;50.454;30.466;2022-09-27T05:45:29;70.90;;;28.13;;
35312;SDS011;21425;50.454;30.466;2022-09-27T05:47:55;116.72;;;30.50;;
35312;SDS011;21425;50.454;30.466;2022-09-27T05:50:21;86.03;;;30.63;;
35312;SDS011;21425;50.454;30.466;2022-09-27T05:52:48;63.13;;;29.02;;
35312;SDS011;21425;50.454;30.466;2022-09-27T05:55:14;63.00;;;30.15;;
35312;SDS011;21425;50.454;30.466;2022-09-27T05:57:40;57.05;;;28.92;;
35312;SDS011;21425;50.454;30.466;2022-09-27T06:00:06;64.38;;;30.05;;
35312;SDS011;21425;50.454;30.466;2022-09-27T06:02:32;59.83;;;27.90;;
35312;SDS011;21425;50.454;30.466;2022-09-27T06:04:59;69.03;;;30.70;;
35312;SDS011;21425;50.454;30.466;2022-09-27T06:07:25;63.40;;;31.30;;
35312;SDS011;21425;50.454;30.466;2022-09-27T06:09:52;61.25;;;28.90;;
35312;SDS011;21425;50.454;30.466;2022-09-27T06:12:18;65.38;;;28.23;;
35312;SDS011;21425;50.454;30.466;2022-09-27T06:14:44;57.08;;;27.92;;
35312;SDS011;21425;50.454;30.466;2022-09-27T06:17:10;58.92;;;29.38;;
35312;SDS011;21425;50.454;30.466;2022-09-27T06:19:36;57.72;;;28.67;;
35312;SDS011;21425;50.454;30.466;2022-09-27T06:22:01;58.40;;;29.05;;
35312;SDS011;21425;50.454;30.466;2022-09-27T06:24:27;60.60;;;28.75;;
35312;SDS011;21425;50.454;30.466;2022-09-27T06:26:53;52.05;;;28.00;;
35312;SDS011;21425;50.454;30.466;2022-09-27T06:29:19;54.28;;;29.88;;
35312;SDS011;21425;50.454;30.466;2022-09-27T06:31:44;60.17;;;28.60;;
35312;SDS011;21425;50.454;30.466;2022-09-27T06:34:10;58.03;;;28.85;;
35312;SDS011;21425;50.454;30.466;2022-09-27T06:36:35;60.65;;;29.42;;
35312;SDS011;21425;50.454;30.466;2022-09-27T06:39:01;61.15;;;30.88;;
35312;SDS011;21425;50.454;30.466;2022-09-27T06:41:26;54.10;;;29.08;;
35312;SDS011;21425;50.454;30.466;2022-09-27T06:43:52;60.33;;;29.73;;
35312;SDS011;21425;50.454;30.466;2022-09-27T06:46:17;57.50;;;28.45;;
35312;SDS011;21425;50.454;30.466;2022-09-27T06:48:43;55.92;;;28.13;;
35312;SDS011;21425;50.454;30.466;2022-09-27T06:51:09;54.92;;;28.05;;
35312;SDS011;21425;50.454;30.466;2022-09-27T06:53:34;55.53;;;27.60;;
35312;SDS011;21425;50.454;30.466;2022-09-27T06:56:00;60.63;;;28.27;;
35312;SDS011;21425;50.454;30.466;2022-09-27T06:58:26;68.15;;;30.95;;
35312;SDS011;21425;50.454;30.466;2022-09-27T07:01:11;66.78;;;29.08;;
35312;SDS011;21425;50.454;30.466;2022-09-27T07:03:37;70.68;;;31.88;;
35312;SDS011;21425;50.454;30.466;2022-09-27T07:06:06;63.65;;;32.13;;
35312;SDS011;21425;50.454;30.466;2022-09-27T07:08:35;71.65;;;31.33;;
35312;SDS011;21425;50.454;30.466;2022-09-27T07:11:05;73.40;;;32.40;;
35312;SDS011;21425;50.454;30.466;2022-09-27T07:13:32;70.55;;;30.55;;
35312;SDS011;21425;50.454;30.466;2022-09-27T07:15:58;77.55;;;33.58;;
35312;SDS011;21425;50.454;30.466;2022-09-27T07:18:25;72.32;;;30.85;;
35312;SDS011;21425;50.454;30.466;2022-09-27T07:20:51;71.65;;;30.27;;
35312;SDS011;21425;50.454;30.466;2022-09-27T07:23:17;85.57;;;32.03;;
35312;SDS011;21425;50.454;30.466;2022-09-27T07:25:43;68.10;;;30.98;;
35312;SDS011;21425;50.454;30.466;2022-09-27T07:28:11;77.53;;;31.23;;
35312;SDS011;21425;50.454;30.466;2022-09-27T07:30:39;79.53;;;32.28;;
35312;SDS011;21425;50.454;30.466;2022-09-27T07:33:06;73.40;;;30.55;;
35312;SDS011;21425;50.454;30.466;2022-09-27T07:35:33;67.93;;;30.83;;
35312;SDS011;21425;50.454;30.466;2022-09-27T07:38:03;73.45;;;30.60;;
35312;SDS011;21425;50.454;30.466;2022-09-27T07:40:32;71.65;;;29.55;;
35312;SDS011;21425;50.454;30.466;2022-09-27T07:43:00;67.38;;;28.17;;
35312;SDS011;21425;50.454;30.466;2022-09-27T07:45:26;77.25;;;31.80;;
35312;SDS011;21425;50.454;30.466;2022-09-27T07:47:52;69.70;;;29.17;;
35312;SDS011;21425;50.454;30.466;2022-09-27T07:50:18;71.75;;;30.15;;
35312;SDS011;21425;50.454;30.466;2022-09-27T07:52:45;84.35;;;32.05;;
35312;SDS011;21425;50.454;30.466;2022-09-27T07:55:14;74.18;;;29.70;;
35312;SDS011;21425;50.454;30.466;2022-09-27T07:57:40;73.80;;;30.88;;
35312;SDS011;21425;50.454;30.466;2022-09-27T08:00:06;71.57;;;29.63;;
35312;SDS011;21425;50.454;30.466;2022-09-27T08:02:34;67.93;;;30.63;;
35312;SDS011;21425;50.454;30.466;2022-09-27T08:05:00;82.93;;;30.95;;
35312;SDS011;21425;50.454;30.466;2022-09-27T08:07:26;90.65;;;33.20;;
35312;SDS011;21425;50.454;30.466;2022-09-27T08:09:52;79.50;;;30.88;;
35312;SDS011;21425;50.454;30.466;2022-09-27T08:12:18;65.05;;;30.58;;
35312;SDS011;21425;50.454;30.466;2022-09-27T08:14:47;81.30;;;32.05;;
35312;SDS011;21425;50.454;30.466;2022-09-27T08:17:13;82.60;;;31.15;;
35312;SDS011;21425;50.454;30.466;2022-09-27T08:19:39;71.53;;;30.70;;
35312;SDS011;21425;50.454;30.466;2022-09-27T08:22:05;75.95;;;31.45;;
35312;SDS011;21425;50.454;30.466;2022-09-27T08:24:31;77.30;;;31.42;;
35312;SDS011;21425;50.454;30.466;2022-09-27T08:26:58;72.72;;;30.05;;
35312;SDS011;21425;50.454;30.466;2022-09-27T08:29:24;72.20;;;30.02;;
35312;SDS011;21425;50.454;30.466;2022-09-27T08:31:50;68.93;;;29.02;;
35312;SDS011;21425;50.454;30.466;2022-09-27T08:34:17;71.35;;;29.30;;
35312;SDS011;21425;50.454;30.466;2022-09-27T08:36:43;66.22;;;29.42;;
35312;SDS011;21425;50.454;30.466;2022-09-27T08:39:09;67.65;;;27.75;;
35312;SDS011;21425;50.454;30.466;2022-09-27T08:44:15;66.13;;;28.90;;
35312;SDS011;21425;50.454;30.466;2022-09-27T08:46:58;61.15;;;27.58;;
35312;SDS011;21425;50.454;30.466;2022-09-27T08:49:34;77.07;;;30.27;;
35312;SDS011;21425;50.454;30.466;2022-09-27T08:52:13;77.50;;;29.95;;
35312;SDS011;21425;50.454;30.466;2022-09-27T08:54:43;73.82;;;30.63;;
35312;SDS011;21425;50.454;30.466;2022-09-27T08:57:11;78.32;;;34.05;;
35312;SDS011;21425;50.454;30.466;2022-09-27T08:59:42;73.80;;;32.20;;
35312;SDS011;21425;50.454;30.466;2022-09-27T09:02:18;81.37;;;33.07;;
35312;SDS011;21425;50.454;30.466;2022-09-27T09:04:49;77.70;;;31.25;;
35312;SDS011;21425;50.454;30.466;2022-09-27T09:07:29;87.72;;;32.25;;
35312;SDS011;21425;50.454;30.466;2022-09-27T09:13:08;75.65;;;32.83;;
35312;SDS011;21425;50.454;30.466;2022-09-27T09:16:06;86.35;;;34.00;;
35312;SDS011;21425;50.454;30.466;2022-09-27T09:29:19;89.30;;;35.33;;
35312;SDS011;21425;50.454;30.466;2022-09-27T09:34:34;86.13;;;36.03;;
35312;SDS011;21425;50.454;30.466;2022-09-27T09:37:16;94.57;;;36.33;;
35312;SDS011;21425;50.454;30.466;2022-09-27T09:39:51;102.05;;;34.88;;
35312;SDS011;21425;50.454;30.466;2022-09-27T09:42:23;96.07;;;37.22;;
35312;SDS011;21425;50.454;30.466;2022-09-27T09:44:57;85.22;;;38.03;;
35312;SDS011;21425;50.454;30.466;2022-09-27T09:47:28;91.90;;;36.88;;
35312;SDS011;21425;50.454;30.466;2022-09-27T09:50:25;101.28;;;40.35;;
35312;SDS011;21425;50.454;30.466;2022-09-27T09:55:38;98.82;;;40.35;;
35312;SDS011;21425;50.454;30.466;2022-09-27T09:58:16;122.03;;;42.53;;
35312;SDS011;21425;50.454;30.466;2022-09-27T10:01:20;97.55;;;39.45;;
35312;SDS011;21425;50.454;30.466;2022-09-27T10:03:57;104.57;;;40.22;;
35312;SDS011;21425;50.454;30.466;2022-09-27T10:06:23;96.05;;;39.53;;
35312;SDS011;21425;50.454;30.466;2022-09-27T10:08:50;110.90;;;42.30;;
35312;SDS011;21425;50.454;30.466;2022-09-27T10:11:23;112.03;;;41.67;;
35312;SDS011;21425;50.454;30.466;2022-09-27T10:13:51;111.55;;;42.78;;
35312;SDS011;21425;50.454;30.466;2022-09-27T10:16:19;113.93;;;43.15;;
35312;SDS011;21425;50.454;30.466;2022-09-27T10:18:46;139.00;;;46.45;;
35312;SDS011;21425;50.454;30.466;2022-09-27T10:21:18;122.72;;;45.13;;
35312;SDS011;21425;50.454;30.466;2022-09-27T10:24:11;127.35;;;45.70;;
35312;SDS011;21425;50.454;30.466;2022-09-27T10:26:38;127.28;;;45.88;;
35312;SDS011;21425;50.454;30.466;2022-09-27T10:31:58;114.68;;;43.47;;
35312;SDS011;21425;50.454;30.466;2022-09-27T10:34:29;116.30;;;42.00;;
35312;SDS011;21425;50.454;30.466;2022-09-27T10:37:04;98.90;;;41.60;;
35312;SDS011;21425;50.454;30.466;2022-09-27T10:39:30;108.45;;;41.55;;
35312;SDS011;21425;50.454;30.466;2022-09-27T10:41:56;109.35;;;42.13;;
35312;SDS011;21425;50.454;30.466;2022-09-27T10:46:52;118.97;;;41.20;;
35312;SDS011;21425;50.454;30.466;2022-09-27T10:49:39;115.55;;;42.92;;
35312;SDS011;21425;50.454;30.466;2022-09-27T10:52:06;103.75;;;39.70;;
35312;SDS011;21425;50.454;30.466;2022-09-27T10:54:39;101.28;;;39.75;;
35312;SDS011;21425;50.454;30.466;2022-09-27T10:59:38;103.97;;;37.92;;
35312;SDS011;21425;50.454;30.466;2022-09-27T11:02:16;105.82;;;38.47;;
35312;SDS011;21425;50.454;30.466;2022-09-27T11:05:08;111.68;;;38.55;;
35312;SDS011;21425;50.454;30.466;2022-09-27T11:07:46;119.93;;;39.65;;
35312;SDS011;21425;50.454;30.466;2022-09-27T11:10:19;117.53;;;40.85;;
35312;SDS011;21425;50.454;30.466;2022-09-27T11:13:04;112.78;;;40.63;;
35312;SDS011;21425;50.454;30.466;2022-09-27T11:15:49;109.30;;;39.53;;
35312;SDS011;21425;50.454;30.466;2022-09-27T11:21:05;100.85;;;38.33;;
35312;SDS011;21425;50.454;30.466;2022-09-27T11:23:38;170.95;;;43.83;;
35312;SDS011;21425;50.454;30.466;2022-09-27T11:38:30;136.50;;;40.05;;
35312;SDS011;21425;50.454;30.466;2022-09-27T11:47:07;112.70;;;36.67;;
35312;SDS011;21425;50.454;30.466;2022-09-27T11:49:41;88.38;;;35.05;;
35312;SDS011;21425;50.454;30.466;2022-09-27T11:52:36;84.78;;;34.25;;
35312;SDS011;21425;50.454;30.466;2022-09-27T12:08:21;110.10;;;36.05;;
35312;SDS011;21425;50.454;30.466;2022-09-27T12:11:22;90.38;;;37.00;;
35312;SDS011;21425;50.454;30.466;2022-09-27T12:13:56;93.25;;;39.25;;
35312;SDS011;21425;50.454;30.466;2022-09-27T12:16:23;80.95;;;33.85;;
35312;SDS011;21425;50.454;30.466;2022-09-27T12:18:50;75.85;;;34.70;;
35312;SDS011;21425;50.454;30.466;2022-09-27T12:21:17;84.82;;;36.33;;
35312;SDS011;21425;50.454;30.466;2022-09-27T12:23:45;81.07;;;34.75;;
35312;SDS011;21425;50.454;30.466;2022-09-27T12:31:09;76.95;;;35.65;;
35312;SDS011;21425;50.454;30.466;2022-09-27T13:35:32;70.07;;;30.60;;
35312;SDS011;21425;50.454;30.466;2022-09-27T13:37:58;69.40;;;30.80;;
35312;SDS011;21425;50.454;30.466;2022-09-27T13:40:34;62.70;;;30.13;;
35312;SDS011;21425;50.454;30.466;2022-09-27T13:51:35;60.08;;;29.55;;
35312;SDS011;21425;50.454;30.466;2022-09-27T13:57:37;57.10;;;29.00;;
35312;SDS011;21425;50.454;30.466;2022-09-27T14:00:21;54.55;;;28.55;;
35312;SDS011;21425;50.454;30.466;2022-09-27T14:02:57;56.00;;;28.73;;
35312;SDS011;21425;50.454;30.466;2022-09-27T14:05:29;64.10;;;30.55;;
35312;SDS011;21425;50.454;30.466;2022-09-27T14:08:02;56.85;;;28.23;;
35312;SDS011;21425;50.454;30.466;2022-09-27T14:10:29;52.90;;;29.55;;
35312;SDS011;21425;50.454;30.466;2022-09-27T14:12:56;56.78;;;29.38;;
35312;SDS011;21425;50.454;30.466;2022-09-27T14:15:25;56.13;;;28.60;;
35312;SDS011;21425;50.454;30.466;2022-09-27T14:17:53;55.20;;;27.23;;
35312;SDS011;21425;50.454;30.466;2022-09-27T14:23:05;45.42;;;25.58;;
35312;SDS011;21425;50.454;30.466;2022-09-27T14:25:45;52.05;;;27.35;;
35312;SDS011;21425;50.454;30.466;2022-09-27T14:28:26;48.13;;;26.33;;
35312;SDS011;21425;50.454;30.466;2022-09-27T14:33:38;47.38;;;25.55;;
35312;SDS011;21425;50.454;30.466;2022-09-27T14:36:07;45.30;;;25.38;;
35312;SDS011;21425;50.454;30.466;2022-09-27T14:39:19;47.03;;;25.83;;
35312;SDS011;21425;50.454;30.466;2022-09-27T14:41:57;52.22;;;27.55;;
35312;SDS011;21425;50.454;30.466;2022-09-27T14:44:23;52.38;;;28.13;;
35312;SDS011;21425;50.454;30.466;2022-09-27T14:47:06;54.15;;;30.42;;
35312;SDS011;21425;50.454;30.466;2022-09-27T14:49:33;53.25;;;30.33;;
35312;SDS011;21425;50.454;30.466;2022-09-27T14:51:59;59.15;;;30.50;;
35312;SDS011;21425;50.454;30.466;2022-09-27T14:54:26;55.20;;;31.42;;
35312;SDS011;21425;50.454;30.466;2022-09-27T14:56:54;59.35;;;30.50;;
35312;SDS011;21425;50.454;30.466;2022-09-27T14:59:28;59.88;;;31.92;;
35312;SDS011;21425;50.454;30.466;2022-09-27T15:01:59;57.47;;;30.52;;
35312;SDS011;21425;50.454;30.466;2022-09-27T15:04:35;63.88;;;31.13;;
35312;SDS011;21425;50.454;30.466;2022-09-27T15:07:02;64.82;;;33.47;;
35312;SDS011;21425;50.454;30.466;2022-09-27T15:09:29;65.00;;;31.80;;
35312;SDS011;21425;50.454;30.466;2022-09-27T15:11:56;69.88;;;35.05;;
35312;SDS011;21425;50.454;30.466;2022-09-27T15:14:24;68.93;;;32.55;;
35312;SDS011;21425;50.454;30.466;2022-09-27T15:16:53;70.40;;;33.70;;
35312;SDS011;21425;50.454;30.466;2022-09-27T15:21:48;68.18;;;33.00;;
35312;SDS011;21425;50.454;30.466;2022-09-27T15:27:17;70.22;;;32.38;;
35312;SDS011;21425;50.454;30.466;2022-09-27T15:29:50;63.30;;;32.25;;
35312;SDS011;21425;50.454;30.466;2022-09-27T15:32:17;70.75;;;33.33;;
35312;SDS011;21425;50.454;30.466;2022-09-27T15:34:45;73.75;;;34.80;;
35312;SDS011;21425;50.454;30.466;2022-09-27T15:37:27;88.05;;;36.45;;
35312;SDS011;21425;50.454;30.466;2022-09-27T15:40:04;86.82;;;38.92;;
35312;SDS011;21425;50.454;30.466;2022-09-27T15:42:59;99.00;;;39.35;;
35312;SDS011;21425;50.454;30.466;2022-09-27T15:45:33;97.18;;;41.30;;
35312;SDS011;21425;50.454;30.466;2022-09-27T15:48:14;94.75;;;40.40;;
35312;SDS011;21425;50.454;30.466;2022-09-27T15:50:42;102.82;;;43.83;;
35312;SDS011;21425;50.454;30.466;2022-09-27T15:53:08;113.32;;;44.80;;
35312;SDS011;21425;50.454;30.466;2022-09-27T15:55:38;108.55;;;44.28;;
35312;SDS011;21425;50.454;30.466;2022-09-27T15:58:07;121.47;;;46.42;;
35312;SDS011;21425;50.454;30.466;2022-09-27T16:03:34;109.18;;;41.72;;
35312;SDS011;21425;50.454;30.466;2022-09-27T16:06:00;103.63;;;42.85;;
35312;SDS011;21425;50.454;30.466;2022-09-27T16:08:27;120.90;;;44.33;;
35312;SDS011;21425;50.454;30.466;2022-09-27T16:10:54;109.47;;;43.53;;
35312;SDS011;21425;50.454;30.466;2022-09-27T16:13:21;118.53;;;42.75;;
35312;SDS011;21425;50.454;30.466;2022-09-27T16:15:48;103.65;;;42.00;;
35312;SDS011;21425;50.454;30.466;2022-09-27T16:18:14;109.15;;;44.47;;
35312;SDS011;21425;50.454;30.466;2022-09-27T16:20:40;110.35;;;46.30;;
35312;SDS011;21425;50.454;30.466;2022-09-27T16:23:05;109.10;;;42.15;;
35312;SDS011;21425;50.454;30.466;2022-09-27T16:25:31;110.45;;;46.00;;
35312;SDS011;21425;50.454;30.466;2022-09-27T16:27:57;109.47;;;45.05;;
35312;SDS011;21425;50.454;30.466;2022-09-27T16:30:24;112.25;;;45.95;;
35312;SDS011;21425;50.454;30.466;2022-09-27T16:32:50;110.07;;;45.38;;
35312;SDS011;21425;50.454;30.466;2022-09-27T16:35:18;106.50;;;43.15;;
35312;SDS011;21425;50.454;30.466;2022-09-27T16:37:44;110.43;;;42.72;;
35312;SDS011;21425;50.454;30.466;2022-09-27T16:40:10;105.78;;;41.90;;
35312;SDS011;21425;50.454;30.466;2022-09-27T16:42:37;116.00;;;45.75;;
35312;SDS011;21425;50.454;30.466;2022-09-27T16:45:03;102.90;;;41.58;;
35312;SDS011;21425;50.454;30.466;2022-09-27T16:47:30;112.38;;;43.08;;
35312;SDS011;21425;50.454;30.466;2022-09-27T16:49:56;113.38;;;41.58;;
35312;SDS011;21425;50.454;30.466;2022-09-27T16:52:40;111.43;;;42.88;;
35312;SDS011;21425;50.454;30.466;2022-09-27T16:55:07;108.40;;;42.35;;
35312;SDS011;21425;50.454;30.466;2022-09-27T16:57:33;114.47;;;42.85;;
35312;SDS011;21425;50.454;30.466;2022-09-27T17:00:00;108.45;;;42.38;;
35312;SDS011;21425;50.454;30.466;2022-09-27T17:02:26;107.72;;;42.28;;
35312;SDS011;21425;50.454;30.466;2022-09-27T17:04:52;95.53;;;40.13;;
35312;SDS011;21425;50.454;30.466;2022-09-27T17:07:18;94.60;;;39.38;;
35312;SDS011;21425;50.454;30.466;2022-09-27T17:09:45;106.13;;;40.53;;
35312;SDS011;21425;50.454;30.466;2022-09-27T17:12:11;109.00;;;44.50;;
35312;SDS011;21425;50.454;30.466;2022-09-27T17:14:37;102.80;;;43.03;;
35312;SDS011;21425;50.454;30.466;2022-09-27T17:17:03;103.68;;;41.75;;
35312;SDS011;21425;50.454;30.466;2022-09-27T17:19:29;118.80;;;47.40;;
35312;SDS011;21425;50.454;30.466;2022-09-27T17:21:56;119.78;;;44.85;;
35312;SDS011;21425;50.454;30.466;2022-09-27T17:24:22;119.95;;;45.10;;
35312;SDS011;21425;50.454;30.466;2022-09-27T17:26:48;125.70;;;46.60;;
35312;SDS011;21425;50.454;30.466;2022-09-27T17:29:15;133.15;;;46.95;;
35312;SDS011;21425;50.454;30.466;2022-09-27T17:31:41;143.82;;;49.38;;
35312;SDS011;21425;50.454;30.466;2022-09-27T17:34:07;138.05;;;48.38;;
35312;SDS011;21425;50.454;30.466;2022-09-27T17:36:36;142.40;;;50.63;;